sensor_id;sensor_type;location;lat;lon;timestamp;P1;durP1;ratioP1;P2;durP2;ratioP2
35592;SDS011;64447;52.140;5.602;2022-10-31T00:01:58;17.23;;;10.75;;
35592;SDS011;64447;52.140;5.602;2022-10-31T00:04:23;15.13;;;10.70;;
35592;SDS011;64447;52.140;5.602;2022-10-31T00:06:49;13.45;;;9.73;;
35592;SDS011;64447;52.140;5.602;2022-10-31T00:09:15;12.55;;;9.40;;
35592;SDS011;64447;52.140;5.602;2022-10-31T00:11:40;13.55;;;9.85;;
35592;SDS011;64447;52.140;5.602;2022-10-31T00:14:06;12.98;;;9.73;;
35592;SDS011;64447;52.140;5.602;2022-10-31T00:16:31;16.77;;;10.57;;
35592;SDS011;64447;52.140;5.602;2022-10-31T00:18:59;13.70;;;9.52;;
35592;SDS011;64447;52.140;5.602;2022-10-31T00:21:26;14.43;;;10.35;;
35592;SDS011;64447;52.140;5.602;2022-10-31T00:23:52;15.50;;;10.05;;
35592;SDS011;64447;52.140;5.602;2022-10-31T00:26:18;15.90;;;10.25;;
35592;SDS011;64447;52.140;5.602;2022-10-31T00:28:44;13.55;;;9.88;;
35592;SDS011;64447;52.140;5.602;2022-10-31T00:31:11;13.23;;;9.98;;
35592;SDS011;64447;52.140;5.602;2022-10-31T00:33:38;16.83;;;10.43;;
35592;SDS011;64447;52.140;5.602;2022-10-31T00:36:05;16.10;;;10.30;;
35592;SDS011;64447;52.140;5.602;2022-10-31T00:38:32;18.00;;;10.25;;
35592;SDS011;64447;52.140;5.602;2022-10-31T00:40:57;17.75;;;10.60;;
35592;SDS011;64447;52.140;5.602;2022-10-31T00:43:23;16.60;;;9.35;;
35592;SDS011;64447;52.140;5.602;2022-10-31T00:45:49;14.38;;;10.00;;
35592;SDS011;64447;52.140;5.602;2022-10-31T00:48:15;14.30;;;9.65;;
35592;SDS011;64447;52.140;5.602;2022-10-31T00:50:41;15.40;;;10.13;;
35592;SDS011;64447;52.140;5.602;2022-10-31T00:53:06;16.65;;;10.15;;
35592;SDS011;64447;52.140;5.602;2022-10-31T00:55:32;14.63;;;10.43;;
35592;SDS011;64447;52.140;5.602;2022-10-31T00:57:58;15.63;;;9.85;;
35592;SDS011;64447;52.140;5.602;2022-10-31T01:00:24;12.63;;;9.32;;
35592;SDS011;64447;52.140;5.602;2022-10-31T01:02:49;15.95;;;10.18;;
35592;SDS011;64447;52.140;5.602;2022-10-31T01:05:15;18.67;;;11.35;;
35592;SDS011;64447;52.140;5.602;2022-10-31T01:07:41;18.55;;;11.77;;
35592;SDS011;64447;52.140;5.602;2022-10-31T01:10:07;18.13;;;10.57;;
35592;SDS011;64447;52.140;5.602;2022-10-31T01:12:47;17.23;;;10.55;;
35592;SDS011;64447;52.140;5.602;2022-10-31T01:15:15;15.02;;;10.02;;
35592;SDS011;64447;52.140;5.602;2022-10-31T01:17:45;15.77;;;10.23;;
35592;SDS011;64447;52.140;5.602;2022-10-31T01:20:11;13.85;;;10.25;;
35592;SDS011;64447;52.140;5.602;2022-10-31T01:22:38;16.85;;;10.18;;
35592;SDS011;64447;52.140;5.602;2022-10-31T01:25:04;14.82;;;10.07;;
35592;SDS011;64447;52.140;5.602;2022-10-31T01:27:31;13.10;;;9.70;;
35592;SDS011;64447;52.140;5.602;2022-10-31T01:29:57;13.88;;;9.90;;
35592;SDS011;64447;52.140;5.602;2022-10-31T01:32:22;15.48;;;10.50;;
35592;SDS011;64447;52.140;5.602;2022-10-31T01:34:48;15.98;;;10.93;;
35592;SDS011;64447;52.140;5.602;2022-10-31T01:37:14;16.20;;;10.73;;
35592;SDS011;64447;52.140;5.602;2022-10-31T01:39:39;16.80;;;9.82;;
35592;SDS011;64447;52.140;5.602;2022-10-31T01:42:05;13.75;;;10.40;;
35592;SDS011;64447;52.140;5.602;2022-10-31T01:46:57;14.65;;;10.65;;
35592;SDS011;64447;52.140;5.602;2022-10-31T01:49:46;14.48;;;9.63;;
35592;SDS011;64447;52.140;5.602;2022-10-31T01:52:30;13.75;;;9.95;;
35592;SDS011;64447;52.140;5.602;2022-10-31T01:55:07;14.15;;;10.75;;
35592;SDS011;64447;52.140;5.602;2022-10-31T01:57:37;11.60;;;9.13;;
35592;SDS011;64447;52.140;5.602;2022-10-31T02:00:06;14.38;;;9.77;;
35592;SDS011;64447;52.140;5.602;2022-10-31T02:02:34;13.15;;;9.35;;
35592;SDS011;64447;52.140;5.602;2022-10-31T02:05:02;15.05;;;9.85;;
35592;SDS011;64447;52.140;5.602;2022-10-31T02:07:36;12.95;;;9.93;;
35592;SDS011;64447;52.140;5.602;2022-10-31T02:10:07;12.95;;;9.68;;
35592;SDS011;64447;52.140;5.602;2022-10-31T02:12:32;14.43;;;9.60;;
35592;SDS011;64447;52.140;5.602;2022-10-31T02:15:01;15.55;;;9.95;;
35592;SDS011;64447;52.140;5.602;2022-10-31T02:17:27;11.73;;;8.75;;
35592;SDS011;64447;52.140;5.602;2022-10-31T02:19:57;15.10;;;9.75;;
35592;SDS011;64447;52.140;5.602;2022-10-31T02:22:28;16.35;;;9.60;;
35592;SDS011;64447;52.140;5.602;2022-10-31T02:33:33;12.70;;;9.27;;
35592;SDS011;64447;52.140;5.602;2022-10-31T02:36:28;15.40;;;9.43;;
35592;SDS011;64447;52.140;5.602;2022-10-31T02:41:59;12.85;;;9.52;;
35592;SDS011;64447;52.140;5.602;2022-10-31T02:47:10;17.67;;;10.07;;
35592;SDS011;64447;52.140;5.602;2022-10-31T02:49:55;11.38;;;9.27;;
35592;SDS011;64447;52.140;5.602;2022-10-31T02:52:34;10.18;;;9.05;;
35592;SDS011;64447;52.140;5.602;2022-10-31T02:55:41;13.02;;;8.90;;
35592;SDS011;64447;52.140;5.602;2022-10-31T02:58:06;11.88;;;9.18;;
35592;SDS011;64447;52.140;5.602;2022-10-31T03:00:49;11.02;;;9.77;;
35592;SDS011;64447;52.140;5.602;2022-10-31T03:06:17;11.45;;;7.78;;
35592;SDS011;64447;52.140;5.602;2022-10-31T03:08:55;11.35;;;8.20;;
35592;SDS011;64447;52.140;5.602;2022-10-31T03:11:26;10.02;;;7.20;;
35592;SDS011;64447;52.140;5.602;2022-10-31T03:14:00;13.40;;;8.07;;
35592;SDS011;64447;52.140;5.602;2022-10-31T03:19:12;11.90;;;8.55;;
35592;SDS011;64447;52.140;5.602;2022-10-31T03:21:50;11.45;;;8.07;;
35592;SDS011;64447;52.140;5.602;2022-10-31T03:24:30;12.50;;;7.93;;
35592;SDS011;64447;52.140;5.602;2022-10-31T03:26:59;10.38;;;7.70;;
35592;SDS011;64447;52.140;5.602;2022-10-31T03:29:27;9.85;;;7.60;;
35592;SDS011;64447;52.140;5.602;2022-10-31T03:31:57;9.48;;;6.95;;
35592;SDS011;64447;52.140;5.602;2022-10-31T03:34:26;11.48;;;7.38;;
35592;SDS011;64447;52.140;5.602;2022-10-31T03:36:55;10.32;;;6.93;;
35592;SDS011;64447;52.140;5.602;2022-10-31T03:39:23;7.40;;;6.13;;
35592;SDS011;64447;52.140;5.602;2022-10-31T03:41:54;8.55;;;6.78;;
35592;SDS011;64447;52.140;5.602;2022-10-31T03:44:32;8.07;;;6.93;;
35592;SDS011;64447;52.140;5.602;2022-10-31T03:47:00;10.00;;;7.03;;
35592;SDS011;64447;52.140;5.602;2022-10-31T03:49:28;10.55;;;7.70;;
35592;SDS011;64447;52.140;5.602;2022-10-31T03:51:55;11.20;;;7.97;;
35592;SDS011;64447;52.140;5.602;2022-10-31T03:54:30;11.43;;;7.60;;
35592;SDS011;64447;52.140;5.602;2022-10-31T03:59:43;10.77;;;6.38;;
35592;SDS011;64447;52.140;5.602;2022-10-31T04:02:11;9.30;;;6.82;;
35592;SDS011;64447;52.140;5.602;2022-10-31T04:04:38;7.05;;;5.88;;
35592;SDS011;64447;52.140;5.602;2022-10-31T04:07:05;7.35;;;5.57;;
35592;SDS011;64447;52.140;5.602;2022-10-31T04:09:33;7.90;;;6.03;;
35592;SDS011;64447;52.140;5.602;2022-10-31T04:12:01;8.77;;;6.30;;
35592;SDS011;64447;52.140;5.602;2022-10-31T04:14:33;9.02;;;5.97;;
35592;SDS011;64447;52.140;5.602;2022-10-31T04:17:02;10.63;;;6.35;;
35592;SDS011;64447;52.140;5.602;2022-10-31T04:19:30;8.13;;;6.30;;
35592;SDS011;64447;52.140;5.602;2022-10-31T04:21:57;9.68;;;7.10;;
35592;SDS011;64447;52.140;5.602;2022-10-31T04:24:23;9.90;;;7.50;;
35592;SDS011;64447;52.140;5.602;2022-10-31T04:26:49;10.48;;;7.72;;
35592;SDS011;64447;52.140;5.602;2022-10-31T04:29:14;9.70;;;7.25;;
35592;SDS011;64447;52.140;5.602;2022-10-31T04:31:40;10.85;;;7.70;;
35592;SDS011;64447;52.140;5.602;2022-10-31T04:34:05;9.90;;;7.05;;
35592;SDS011;64447;52.140;5.602;2022-10-31T04:36:32;10.02;;;7.03;;
35592;SDS011;64447;52.140;5.602;2022-10-31T04:38:57;9.43;;;7.82;;
35592;SDS011;64447;52.140;5.602;2022-10-31T04:41:23;8.98;;;6.72;;
35592;SDS011;64447;52.140;5.602;2022-10-31T04:43:49;10.57;;;7.30;;
35592;SDS011;64447;52.140;5.602;2022-10-31T04:46:14;10.02;;;7.72;;
35592;SDS011;64447;52.140;5.602;2022-10-31T04:48:40;10.15;;;7.38;;
35592;SDS011;64447;52.140;5.602;2022-10-31T04:51:05;8.63;;;7.28;;
35592;SDS011;64447;52.140;5.602;2022-10-31T04:53:31;8.80;;;6.68;;
35592;SDS011;64447;52.140;5.602;2022-10-31T04:55:57;9.90;;;6.70;;
35592;SDS011;64447;52.140;5.602;2022-10-31T04:58:24;8.15;;;6.97;;
35592;SDS011;64447;52.140;5.602;2022-10-31T05:00:53;7.90;;;6.40;;
35592;SDS011;64447;52.140;5.602;2022-10-31T05:03:20;9.27;;;6.68;;
35592;SDS011;64447;52.140;5.602;2022-10-31T05:05:46;7.68;;;6.00;;
35592;SDS011;64447;52.140;5.602;2022-10-31T05:08:11;9.82;;;6.55;;
35592;SDS011;64447;52.140;5.602;2022-10-31T05:10:37;6.85;;;5.88;;
35592;SDS011;64447;52.140;5.602;2022-10-31T05:13:03;9.23;;;6.72;;
35592;SDS011;64447;52.140;5.602;2022-10-31T05:15:29;8.38;;;6.50;;
35592;SDS011;64447;52.140;5.602;2022-10-31T05:17:55;10.80;;;6.40;;
35592;SDS011;64447;52.140;5.602;2022-10-31T05:20:22;9.18;;;6.00;;
35592;SDS011;64447;52.140;5.602;2022-10-31T05:22:50;12.18;;;7.00;;
35592;SDS011;64447;52.140;5.602;2022-10-31T05:25:17;10.40;;;7.35;;
35592;SDS011;64447;52.140;5.602;2022-10-31T05:27:45;8.77;;;6.18;;
35592;SDS011;64447;52.140;5.602;2022-10-31T05:30:13;8.23;;;6.25;;
35592;SDS011;64447;52.140;5.602;2022-10-31T05:32:41;7.13;;;5.93;;
35592;SDS011;64447;52.140;5.602;2022-10-31T05:38:30;8.35;;;5.75;;
35592;SDS011;64447;52.140;5.602;2022-10-31T05:40:56;8.45;;;6.70;;
35592;SDS011;64447;52.140;5.602;2022-10-31T05:43:27;7.65;;;6.78;;
35592;SDS011;64447;52.140;5.602;2022-10-31T05:45:54;10.68;;;6.03;;
35592;SDS011;64447;52.140;5.602;2022-10-31T05:48:20;8.35;;;6.38;;
35592;SDS011;64447;52.140;5.602;2022-10-31T05:50:47;8.35;;;6.68;;
35592;SDS011;64447;52.140;5.602;2022-10-31T05:53:13;9.07;;;6.68;;
35592;SDS011;64447;52.140;5.602;2022-10-31T05:55:39;7.93;;;6.38;;
35592;SDS011;64447;52.140;5.602;2022-10-31T05:58:08;9.20;;;6.78;;
35592;SDS011;64447;52.140;5.602;2022-10-31T06:00:33;10.38;;;7.65;;
35592;SDS011;64447;52.140;5.602;2022-10-31T06:03:03;11.02;;;7.68;;
35592;SDS011;64447;52.140;5.602;2022-10-31T06:05:31;8.50;;;7.43;;
35592;SDS011;64447;52.140;5.602;2022-10-31T06:07:58;11.90;;;7.45;;
35592;SDS011;64447;52.140;5.602;2022-10-31T06:10:24;10.73;;;7.55;;
35592;SDS011;64447;52.140;5.602;2022-10-31T06:12:50;9.35;;;8.20;;
35592;SDS011;64447;52.140;5.602;2022-10-31T06:15:16;9.77;;;7.65;;
35592;SDS011;64447;52.140;5.602;2022-10-31T06:17:42;10.93;;;7.63;;
35592;SDS011;64447;52.140;5.602;2022-10-31T06:23:11;10.95;;;8.10;;
35592;SDS011;64447;52.140;5.602;2022-10-31T06:25:37;9.63;;;7.35;;
35592;SDS011;64447;52.140;5.602;2022-10-31T06:28:03;12.25;;;8.93;;
35592;SDS011;64447;52.140;5.602;2022-10-31T06:30:29;12.88;;;9.38;;
35592;SDS011;64447;52.140;5.602;2022-10-31T06:33:01;12.02;;;8.73;;
35592;SDS011;64447;52.140;5.602;2022-10-31T06:38:30;13.18;;;9.20;;
35592;SDS011;64447;52.140;5.602;2022-10-31T06:40:56;14.90;;;9.68;;
35592;SDS011;64447;52.140;5.602;2022-10-31T06:43:22;14.73;;;10.05;;
35592;SDS011;64447;52.140;5.602;2022-10-31T06:45:48;15.85;;;10.18;;
35592;SDS011;64447;52.140;5.602;2022-10-31T06:48:15;14.98;;;10.35;;
35592;SDS011;64447;52.140;5.602;2022-10-31T06:50:40;17.17;;;11.80;;
35592;SDS011;64447;52.140;5.602;2022-10-31T06:53:07;19.75;;;11.75;;
35592;SDS011;64447;52.140;5.602;2022-10-31T06:55:33;19.92;;;11.77;;
35592;SDS011;64447;52.140;5.602;2022-10-31T06:58:00;19.25;;;12.13;;
35592;SDS011;64447;52.140;5.602;2022-10-31T07:00:27;16.15;;;10.70;;
35592;SDS011;64447;52.140;5.602;2022-10-31T07:02:56;15.02;;;10.50;;
35592;SDS011;64447;52.140;5.602;2022-10-31T07:08:26;16.23;;;11.32;;
35592;SDS011;64447;52.140;5.602;2022-10-31T07:10:53;17.77;;;12.63;;
35592;SDS011;64447;52.140;5.602;2022-10-31T07:13:19;17.10;;;12.57;;
35592;SDS011;64447;52.140;5.602;2022-10-31T07:15:49;14.60;;;11.32;;
35592;SDS011;64447;52.140;5.602;2022-10-31T07:18:15;16.27;;;12.23;;
35592;SDS011;64447;52.140;5.602;2022-10-31T07:23:47;14.27;;;11.40;;
35592;SDS011;64447;52.140;5.602;2022-10-31T07:26:13;15.07;;;11.40;;
35592;SDS011;64447;52.140;5.602;2022-10-31T07:28:39;14.00;;;11.40;;
35592;SDS011;64447;52.140;5.602;2022-10-31T07:31:05;14.20;;;11.25;;
35592;SDS011;64447;52.140;5.602;2022-10-31T07:33:31;16.77;;;11.80;;
35592;SDS011;64447;52.140;5.602;2022-10-31T07:35:57;15.98;;;12.73;;
35592;SDS011;64447;52.140;5.602;2022-10-31T07:38:23;16.13;;;11.95;;
35592;SDS011;64447;52.140;5.602;2022-10-31T07:40:50;20.45;;;13.40;;
35592;SDS011;64447;52.140;5.602;2022-10-31T07:43:17;18.10;;;13.30;;
35592;SDS011;64447;52.140;5.602;2022-10-31T07:45:43;18.42;;;13.77;;
35592;SDS011;64447;52.140;5.602;2022-10-31T07:48:09;17.58;;;13.80;;
35592;SDS011;64447;52.140;5.602;2022-10-31T07:53:39;21.15;;;16.58;;
35592;SDS011;64447;52.140;5.602;2022-10-31T07:56:05;30.80;;;17.85;;
35592;SDS011;64447;52.140;5.602;2022-10-31T07:58:31;22.25;;;17.65;;
35592;SDS011;64447;52.140;5.602;2022-10-31T08:00:57;23.95;;;18.42;;
35592;SDS011;64447;52.140;5.602;2022-10-31T08:03:23;27.50;;;17.70;;
35592;SDS011;64447;52.140;5.602;2022-10-31T08:08:52;24.08;;;17.15;;
35592;SDS011;64447;52.140;5.602;2022-10-31T08:11:18;25.45;;;18.17;;
35592;SDS011;64447;52.140;5.602;2022-10-31T08:13:46;25.60;;;17.67;;
35592;SDS011;64447;52.140;5.602;2022-10-31T08:16:12;27.95;;;19.63;;
35592;SDS011;64447;52.140;5.602;2022-10-31T08:18:38;28.67;;;18.95;;
35592;SDS011;64447;52.140;5.602;2022-10-31T08:24:07;34.13;;;23.48;;
35592;SDS011;64447;52.140;5.602;2022-10-31T08:26:33;36.25;;;25.38;;
35592;SDS011;64447;52.140;5.602;2022-10-31T08:28:59;39.15;;;24.83;;
35592;SDS011;64447;52.140;5.602;2022-10-31T08:31:26;37.50;;;25.15;;
35592;SDS011;64447;52.140;5.602;2022-10-31T08:33:53;32.78;;;23.60;;
35592;SDS011;64447;52.140;5.602;2022-10-31T08:39:22;39.20;;;25.45;;
35592;SDS011;64447;52.140;5.602;2022-10-31T08:41:48;39.92;;;27.98;;
35592;SDS011;64447;52.140;5.602;2022-10-31T08:44:15;40.17;;;28.33;;
35592;SDS011;64447;52.140;5.602;2022-10-31T08:46:41;41.85;;;27.85;;
35592;SDS011;64447;52.140;5.602;2022-10-31T08:49:06;38.83;;;27.63;;
35592;SDS011;64447;52.140;5.602;2022-10-31T08:51:32;36.38;;;25.15;;
35592;SDS011;64447;52.140;5.602;2022-10-31T08:53:58;45.30;;;29.63;;
35592;SDS011;64447;52.140;5.602;2022-10-31T08:56:23;38.55;;;28.42;;
35592;SDS011;64447;52.140;5.602;2022-10-31T08:58:49;40.33;;;28.77;;
35592;SDS011;64447;52.140;5.602;2022-10-31T09:01:16;45.53;;;29.27;;
35592;SDS011;64447;52.140;5.602;2022-10-31T09:03:41;43.08;;;26.90;;
35592;SDS011;64447;52.140;5.602;2022-10-31T09:09:29;39.88;;;26.77;;
35592;SDS011;64447;52.140;5.602;2022-10-31T09:11:54;40.17;;;27.42;;
35592;SDS011;64447;52.140;5.602;2022-10-31T09:14:20;41.42;;;30.08;;
35592;SDS011;64447;52.140;5.602;2022-10-31T09:16:46;45.25;;;29.17;;
35592;SDS011;64447;52.140;5.602;2022-10-31T09:19:11;47.00;;;31.80;;
35592;SDS011;64447;52.140;5.602;2022-10-31T09:21:37;38.30;;;28.10;;
35592;SDS011;64447;52.140;5.602;2022-10-31T09:24:02;39.78;;;28.80;;
35592;SDS011;64447;52.140;5.602;2022-10-31T09:26:28;39.33;;;26.63;;
35592;SDS011;64447;52.140;5.602;2022-10-31T09:28:53;36.10;;;25.75;;
35592;SDS011;64447;52.140;5.602;2022-10-31T09:31:19;40.17;;;23.70;;
35592;SDS011;64447;52.140;5.602;2022-10-31T09:33:45;37.65;;;23.23;;
35592;SDS011;64447;52.140;5.602;2022-10-31T09:36:10;33.30;;;22.48;;
35592;SDS011;64447;52.140;5.602;2022-10-31T09:38:36;33.30;;;22.23;;
35592;SDS011;64447;52.140;5.602;2022-10-31T09:47:37;30.88;;;19.08;;
35592;SDS011;64447;52.140;5.602;2022-10-31T09:52:36;37.58;;;20.90;;
35592;SDS011;64447;52.140;5.602;2022-10-31T09:55:08;33.83;;;22.65;;
35592;SDS011;64447;52.140;5.602;2022-10-31T09:57:45;33.78;;;21.70;;
35592;SDS011;64447;52.140;5.602;2022-10-31T10:00:20;30.40;;;22.83;;
35592;SDS011;64447;52.140;5.602;2022-10-31T10:02:49;30.45;;;21.65;;
35592;SDS011;64447;52.140;5.602;2022-10-31T10:05:22;32.60;;;20.80;;
35592;SDS011;64447;52.140;5.602;2022-10-31T10:08:03;27.50;;;19.50;;
35592;SDS011;64447;52.140;5.602;2022-10-31T10:13:20;28.08;;;20.15;;
35592;SDS011;64447;52.140;5.602;2022-10-31T10:18:58;31.55;;;18.67;;
35592;SDS011;64447;52.140;5.602;2022-10-31T10:24:37;28.85;;;17.80;;
35592;SDS011;64447;52.140;5.602;2022-10-31T10:32:47;26.70;;;16.17;;
35592;SDS011;64447;52.140;5.602;2022-10-31T10:35:21;23.27;;;15.75;;
35592;SDS011;64447;52.140;5.602;2022-10-31T10:37:56;24.20;;;15.68;;
35592;SDS011;64447;52.140;5.602;2022-10-31T10:40:34;25.95;;;16.40;;
35592;SDS011;64447;52.140;5.602;2022-10-31T10:45:50;26.02;;;17.65;;
35592;SDS011;64447;52.140;5.602;2022-10-31T10:48:44;29.75;;;18.05;;
35592;SDS011;64447;52.140;5.602;2022-10-31T10:57:05;28.27;;;17.35;;
35592;SDS011;64447;52.140;5.602;2022-10-31T10:59:53;34.30;;;18.50;;
35592;SDS011;64447;52.140;5.602;2022-10-31T11:02:26;24.77;;;16.98;;
35592;SDS011;64447;52.140;5.602;2022-10-31T11:04:56;31.15;;;19.27;;
35592;SDS011;64447;52.140;5.602;2022-10-31T11:07:23;31.42;;;17.42;;
35592;SDS011;64447;52.140;5.602;2022-10-31T11:09:49;30.65;;;18.05;;
35592;SDS011;64447;52.140;5.602;2022-10-31T11:12:22;34.25;;;18.73;;
35592;SDS011;64447;52.140;5.602;2022-10-31T11:14:54;32.25;;;19.00;;
35592;SDS011;64447;52.140;5.602;2022-10-31T11:17:26;33.40;;;18.45;;
35592;SDS011;64447;52.140;5.602;2022-10-31T11:20:02;37.50;;;20.05;;
35592;SDS011;64447;52.140;5.602;2022-10-31T11:22:28;34.80;;;19.15;;
35592;SDS011;64447;52.140;5.602;2022-10-31T11:24:54;31.33;;;19.42;;
35592;SDS011;64447;52.140;5.602;2022-10-31T11:27:20;33.58;;;19.98;;
35592;SDS011;64447;52.140;5.602;2022-10-31T11:29:48;37.05;;;21.45;;
35592;SDS011;64447;52.140;5.602;2022-10-31T11:32:18;40.03;;;20.88;;
35592;SDS011;64447;52.140;5.602;2022-10-31T11:34:45;39.20;;;21.70;;
35592;SDS011;64447;52.140;5.602;2022-10-31T11:37:16;35.22;;;20.30;;
35592;SDS011;64447;52.140;5.602;2022-10-31T11:39:52;35.83;;;21.90;;
35592;SDS011;64447;52.140;5.602;2022-10-31T11:42:24;35.70;;;19.77;;
35592;SDS011;64447;52.140;5.602;2022-10-31T11:44:52;34.65;;;20.27;;
35592;SDS011;64447;52.140;5.602;2022-10-31T11:47:24;34.42;;;19.20;;
35592;SDS011;64447;52.140;5.602;2022-10-31T11:49:53;32.97;;;19.63;;
35592;SDS011;64447;52.140;5.602;2022-10-31T11:52:23;36.60;;;19.60;;
35592;SDS011;64447;52.140;5.602;2022-10-31T11:54:59;35.25;;;19.75;;
35592;SDS011;64447;52.140;5.602;2022-10-31T11:57:56;33.58;;;19.08;;
35592;SDS011;64447;52.140;5.602;2022-10-31T12:05:36;32.58;;;18.65;;
35592;SDS011;64447;52.140;5.602;2022-10-31T12:08:04;37.63;;;21.10;;
35592;SDS011;64447;52.140;5.602;2022-10-31T12:10:36;35.50;;;19.88;;
35592;SDS011;64447;52.140;5.602;2022-10-31T12:16:05;34.17;;;22.08;;
35592;SDS011;64447;52.140;5.602;2022-10-31T12:30:21;41.53;;;22.88;;
35592;SDS011;64447;52.140;5.602;2022-10-31T12:35:40;41.63;;;24.88;;
35592;SDS011;64447;52.140;5.602;2022-10-31T12:46:11;49.00;;;27.17;;
35592;SDS011;64447;52.140;5.602;2022-10-31T12:54:37;51.38;;;28.95;;
35592;SDS011;64447;52.140;5.602;2022-10-31T12:59:50;48.05;;;28.75;;
35592;SDS011;64447;52.140;5.602;2022-10-31T13:13:13;50.97;;;28.83;;
35592;SDS011;64447;52.140;5.602;2022-10-31T13:15:55;52.20;;;28.13;;
35592;SDS011;64447;52.140;5.602;2022-10-31T13:18:33;51.35;;;27.92;;
35592;SDS011;64447;52.140;5.602;2022-10-31T13:21:08;46.00;;;26.92;;
35592;SDS011;64447;52.140;5.602;2022-10-31T13:23:42;50.17;;;28.67;;
35592;SDS011;64447;52.140;5.602;2022-10-31T13:26:10;49.22;;;27.13;;
35592;SDS011;64447;52.140;5.602;2022-10-31T13:28:46;46.78;;;27.33;;
35592;SDS011;64447;52.140;5.602;2022-10-31T13:31:15;48.58;;;28.45;;
35592;SDS011;64447;52.140;5.602;2022-10-31T13:33:51;46.97;;;28.10;;
35592;SDS011;64447;52.140;5.602;2022-10-31T13:39:32;53.90;;;29.80;;
35592;SDS011;64447;52.140;5.602;2022-10-31T13:44:55;51.47;;;27.65;;
35592;SDS011;64447;52.140;5.602;2022-10-31T13:47:31;54.30;;;29.33;;
35592;SDS011;64447;52.140;5.602;2022-10-31T13:53:03;50.17;;;29.40;;
35592;SDS011;64447;52.140;5.602;2022-10-31T13:55:40;51.40;;;29.83;;
35592;SDS011;64447;52.140;5.602;2022-10-31T13:58:21;53.35;;;28.88;;
35592;SDS011;64447;52.140;5.602;2022-10-31T14:03:46;48.70;;;28.15;;
35592;SDS011;64447;52.140;5.602;2022-10-31T14:06:21;50.20;;;28.25;;
35592;SDS011;64447;52.140;5.602;2022-10-31T14:08:59;48.92;;;28.20;;
35592;SDS011;64447;52.140;5.602;2022-10-31T14:11:25;47.20;;;27.60;;
35592;SDS011;64447;52.140;5.602;2022-10-31T14:13:52;52.22;;;26.63;;
35592;SDS011;64447;52.140;5.602;2022-10-31T14:16:22;47.90;;;26.52;;
35592;SDS011;64447;52.140;5.602;2022-10-31T14:19:35;43.72;;;24.95;;
35592;SDS011;64447;52.140;5.602;2022-10-31T14:21:46;48.47;;;27.77;;
35592;SDS011;64447;52.140;5.602;2022-10-31T14:24:30;47.72;;;26.38;;
35592;SDS011;64447;52.140;5.602;2022-10-31T14:29:45;48.58;;;27.05;;
35592;SDS011;64447;52.140;5.602;2022-10-31T14:34:40;39.63;;;25.15;;
35592;SDS011;64447;52.140;5.602;2022-10-31T14:45:04;47.97;;;26.67;;
35592;SDS011;64447;52.140;5.602;2022-10-31T14:47:50;42.00;;;25.02;;
35592;SDS011;64447;52.140;5.602;2022-10-31T14:53:11;47.72;;;25.98;;
35592;SDS011;64447;52.140;5.602;2022-10-31T14:55:45;53.45;;;26.88;;
35592;SDS011;64447;52.140;5.602;2022-10-31T14:58:16;46.45;;;26.83;;
35592;SDS011;64447;52.140;5.602;2022-10-31T15:00:45;43.88;;;25.52;;
35592;SDS011;64447;52.140;5.602;2022-10-31T15:03:12;44.58;;;24.27;;
35592;SDS011;64447;52.140;5.602;2022-10-31T15:05:44;42.58;;;24.23;;
35592;SDS011;64447;52.140;5.602;2022-10-31T15:08:26;40.67;;;23.85;;
35592;SDS011;64447;52.140;5.602;2022-10-31T15:11:12;36.65;;;21.25;;
35592;SDS011;64447;52.140;5.602;2022-10-31T15:13:47;45.42;;;24.75;;
35592;SDS011;64447;52.140;5.602;2022-10-31T15:16:15;42.25;;;23.48;;
35592;SDS011;64447;52.140;5.602;2022-10-31T15:19:04;43.78;;;23.48;;
35592;SDS011;64447;52.140;5.602;2022-10-31T15:21:32;41.15;;;22.83;;
35592;SDS011;64447;52.140;5.602;2022-10-31T15:24:00;42.60;;;25.05;;
35592;SDS011;64447;52.140;5.602;2022-10-31T15:26:30;45.13;;;23.80;;
35592;SDS011;64447;52.140;5.602;2022-10-31T15:29:11;41.20;;;24.40;;
35592;SDS011;64447;52.140;5.602;2022-10-31T15:31:38;39.70;;;22.67;;
35592;SDS011;64447;52.140;5.602;2022-10-31T15:34:16;41.03;;;25.08;;
35592;SDS011;64447;52.140;5.602;2022-10-31T15:36:47;49.13;;;23.67;;
35592;SDS011;64447;52.140;5.602;2022-10-31T15:39:14;40.58;;;23.65;;
35592;SDS011;64447;52.140;5.602;2022-10-31T15:41:49;37.78;;;23.25;;
35592;SDS011;64447;52.140;5.602;2022-10-31T15:44:16;44.30;;;24.23;;
35592;SDS011;64447;52.140;5.602;2022-10-31T15:46:57;41.10;;;22.45;;
35592;SDS011;64447;52.140;5.602;2022-10-31T15:49:35;41.40;;;22.80;;
35592;SDS011;64447;52.140;5.602;2022-10-31T15:52:33;45.30;;;23.05;;
35592;SDS011;64447;52.140;5.602;2022-10-31T15:55:03;38.72;;;21.80;;
35592;SDS011;64447;52.140;5.602;2022-10-31T15:57:42;40.10;;;21.73;;
35592;SDS011;64447;52.140;5.602;2022-10-31T16:00:23;42.75;;;22.92;;
35592;SDS011;64447;52.140;5.602;2022-10-31T16:05:32;46.28;;;22.85;;
35592;SDS011;64447;52.140;5.602;2022-10-31T16:10:51;43.65;;;24.17;;
35592;SDS011;64447;52.140;5.602;2022-10-31T16:13:17;44.20;;;24.60;;
35592;SDS011;64447;52.140;5.602;2022-10-31T16:15:47;39.53;;;23.27;;
35592;SDS011;64447;52.140;5.602;2022-10-31T16:18:15;43.65;;;25.02;;
35592;SDS011;64447;52.140;5.602;2022-10-31T16:20:40;48.40;;;26.02;;
35592;SDS011;64447;52.140;5.602;2022-10-31T16:23:15;45.97;;;25.60;;
35592;SDS011;64447;52.140;5.602;2022-10-31T16:25:42;49.17;;;26.08;;
35592;SDS011;64447;52.140;5.602;2022-10-31T16:28:21;42.42;;;24.67;;
35592;SDS011;64447;52.140;5.602;2022-10-31T16:30:49;43.47;;;25.80;;
35592;SDS011;64447;52.140;5.602;2022-10-31T16:33:28;41.88;;;25.63;;
35592;SDS011;64447;52.140;5.602;2022-10-31T16:38:56;45.20;;;26.98;;
35592;SDS011;64447;52.140;5.602;2022-10-31T16:41:23;51.08;;;28.48;;
35592;SDS011;64447;52.140;5.602;2022-10-31T16:43:49;48.70;;;27.60;;
35592;SDS011;64447;52.140;5.602;2022-10-31T16:46:16;50.25;;;29.23;;
35592;SDS011;64447;52.140;5.602;2022-10-31T16:48:46;46.97;;;27.63;;
35592;SDS011;64447;52.140;5.602;2022-10-31T16:51:12;47.97;;;26.60;;
35592;SDS011;64447;52.140;5.602;2022-10-31T16:53:37;47.03;;;28.67;;
35592;SDS011;64447;52.140;5.602;2022-10-31T16:56:03;49.95;;;28.23;;
35592;SDS011;64447;52.140;5.602;2022-10-31T16:58:30;49.42;;;27.73;;
35592;SDS011;64447;52.140;5.602;2022-10-31T17:01:00;52.92;;;27.58;;
35592;SDS011;64447;52.140;5.602;2022-10-31T17:03:28;46.75;;;27.98;;
35592;SDS011;64447;52.140;5.602;2022-10-31T17:05:55;50.78;;;27.60;;
35592;SDS011;64447;52.140;5.602;2022-10-31T17:08:21;46.83;;;26.58;;
35592;SDS011;64447;52.140;5.602;2022-10-31T17:10:50;50.28;;;27.83;;
35592;SDS011;64447;52.140;5.602;2022-10-31T17:13:18;49.05;;;26.67;;
35592;SDS011;64447;52.140;5.602;2022-10-31T17:15:47;48.92;;;25.65;;
35592;SDS011;64447;52.140;5.602;2022-10-31T17:18:16;51.90;;;27.05;;
35592;SDS011;64447;52.140;5.602;2022-10-31T17:20:42;45.75;;;27.67;;
35592;SDS011;64447;52.140;5.602;2022-10-31T17:23:09;46.88;;;26.20;;
35592;SDS011;64447;52.140;5.602;2022-10-31T17:25:36;43.45;;;26.50;;
35592;SDS011;64447;52.140;5.602;2022-10-31T17:28:02;47.75;;;27.08;;
35592;SDS011;64447;52.140;5.602;2022-10-31T17:30:27;45.95;;;26.33;;
35592;SDS011;64447;52.140;5.602;2022-10-31T17:32:53;49.33;;;26.33;;
35592;SDS011;64447;52.140;5.602;2022-10-31T17:35:19;50.42;;;27.48;;
35592;SDS011;64447;52.140;5.602;2022-10-31T17:37:46;46.88;;;27.55;;